Time;durP1;ratioP1;P1;durP2;ratioP2;P2;SDS_P1;SDS_P2;PMS_P1;PMS_P2;Temp;Humidity;BMP_temperature;BMP_pressure;BME280_temperature;BME280_humidity;BME280_pressure;Samples;Min_cycle;Max_cycle;Signal;HPM_P1;HPM_P2
2022/11/15 00:01:31;;;;;;;32.83;17.15;;;7.00;99.90;;;;;;5078908;28;20051;-67
2022/11/15 00:03:57;;;;;;;32.03;17.52;;;7.10;99.90;;;;;;5077532;28;20139;-63
2022/11/15 00:06:23;;;;;;;35.17;17.33;;;7.20;99.90;;;;;;5061076;28;20040;-67
2022/11/15 00:08:48;;;;;;;33.13;17.58;;;7.30;99.90;;;;;;5075245;28;20047;-66
2022/11/15 00:11:14;;;;;;;29.55;16.98;;;7.40;99.90;;;;;;5064349;28;20033;-67
2022/11/15 00:13:40;;;;;;;33.75;16.88;;;7.50;99.90;;;;;;5064350;28;20500;-67
2022/11/15 00:16:06;;;;;;;36.95;18.08;;;7.60;99.90;;;;;;5074718;28;20494;-66
2022/11/15 00:18:31;;;;;;;30.08;16.60;;;7.70;99.90;;;;;;5075464;28;20039;-66
2022/11/15 00:21:10;;;;;;;32.22;17.65;;;7.70;99.90;;;;;;5070619;28;20045;-66
2022/11/15 00:23:35;;;;;;;32.17;17.55;;;7.80;99.90;;;;;;5062240;28;20449;-67
2022/11/15 00:26:01;;;;;;;33.95;18.15;;;7.80;99.90;;;;;;5074860;28;20576;-67
2022/11/15 00:28:27;;;;;;;34.10;17.48;;;7.90;99.90;;;;;;5064103;28;20509;-66
2022/11/15 00:30:53;;;;;;;31.40;16.92;;;7.90;99.90;;;;;;5074061;28;20398;-65
2022/11/15 00:33:18;;;;;;;34.85;17.10;;;7.90;99.90;;;;;;5087518;28;20094;-67
2022/11/15 00:35:44;;;;;;;31.70;16.63;;;8.00;99.90;;;;;;5095322;28;20028;-67
2022/11/15 00:38:10;;;;;;;33.60;17.30;;;8.00;99.90;;;;;;5066509;28;20115;-67
2022/11/15 00:40:35;;;;;;;35.05;17.20;;;8.10;99.90;;;;;;5069796;28;20075;-67
2022/11/15 00:43:01;;;;;;;31.05;17.42;;;8.10;99.90;;;;;;5074275;28;20068;-65
2022/11/15 00:45:26;;;;;;;38.67;17.55;;;8.10;99.90;;;;;;5064101;28;20036;-67
2022/11/15 00:47:52;;;;;;;34.88;16.83;;;8.20;99.90;;;;;;5074191;28;20036;-67
2022/11/15 00:50:18;;;;;;;32.25;16.58;;;8.10;99.90;;;;;;5074763;28;20041;-67
2022/11/15 00:52:44;;;;;;;31.48;16.80;;;8.20;99.90;;;;;;5060550;28;20487;-65
2022/11/15 00:55:15;;;;;;;30.35;17.02;;;8.20;99.90;;;;;;5068198;28;20060;-65
2022/11/15 00:57:41;;;;;;;32.95;16.90;;;8.20;99.90;;;;;;5074031;28;20037;-67
2022/11/15 01:00:07;;;;;;;34.35;17.55;;;8.20;99.90;;;;;;5071958;28;20115;-65
2022/11/15 01:02:32;;;;;;;34.75;16.88;;;8.20;99.90;;;;;;5057509;28;20123;-66
2022/11/15 01:04:58;;;;;;;30.55;16.05;;;8.30;99.90;;;;;;5070818;28;20578;-65
2022/11/15 01:07:24;;;;;;;31.25;16.80;;;8.30;99.90;;;;;;5074550;28;20036;-67
2022/11/15 01:09:49;;;;;;;32.35;16.38;;;8.30;99.90;;;;;;5070070;28;20040;-65
2022/11/15 01:12:15;;;;;;;33.45;16.73;;;8.30;99.90;;;;;;5066517;28;20399;-66
2022/11/15 01:14:40;;;;;;;33.45;17.52;;;8.30;99.90;;;;;;5076400;28;20085;-67
2022/11/15 01:17:06;;;;;;;34.45;16.92;;;8.30;99.90;;;;;;5088032;28;20542;-65
2022/11/15 01:19:32;;;;;;;30.50;16.25;;;8.30;99.90;;;;;;5077052;28;20035;-66
2022/11/15 01:21:57;;;;;;;32.53;16.48;;;8.30;99.90;;;;;;5075711;28;20051;-67
2022/11/15 01:24:23;;;;;;;32.35;16.13;;;8.30;99.90;;;;;;5074031;28;20051;-66
2022/11/15 01:26:48;;;;;;;32.72;17.10;;;8.30;99.90;;;;;;5059359;28;20044;-66
2022/11/15 01:29:14;;;;;;;30.90;16.70;;;8.30;99.90;;;;;;5066560;28;20056;-66
2022/11/15 01:31:39;;;;;;;33.60;17.65;;;8.30;99.90;;;;;;5073425;28;20124;-66
2022/11/15 01:34:05;;;;;;;31.90;17.00;;;8.30;99.90;;;;;;5066881;28;20020;-66
2022/11/15 01:36:31;;;;;;;35.25;16.88;;;8.30;99.90;;;;;;5073118;28;20495;-66
2022/11/15 01:38:58;;;;;;;35.65;18.13;;;8.40;99.90;;;;;;5073273;28;20044;-67
2022/11/15 01:41:30;;;;;;;32.05;16.55;;;8.40;99.90;;;;;;5073221;28;20032;-66
2022/11/15 01:44:17;;;;;;;29.40;15.88;;;8.40;99.90;;;;;;5059889;28;20102;-66
2022/11/15 01:46:47;;;;;;;32.85;16.75;;;8.40;99.90;;;;;;5069201;28;20467;-66
2022/11/15 01:49:19;;;;;;;33.38;16.90;;;8.40;99.90;;;;;;5073390;28;20047;-67
2022/11/15 01:51:45;;;;;;;34.85;16.55;;;8.40;99.90;;;;;;5061008;28;20111;-66
2022/11/15 01:54:16;;;;;;;31.70;17.08;;;8.50;99.90;;;;;;5066558;28;20499;-67
2022/11/15 01:56:53;;;;;;;31.40;16.98;;;8.50;99.90;;;;;;5074376;28;20086;-66
2022/11/15 01:59:19;;;;;;;33.33;16.77;;;8.50;99.90;;;;;;5086158;28;20060;-67
2022/11/15 02:01:45;;;;;;;40.58;17.85;;;8.50;99.90;;;;;;5053910;28;20560;-66
2022/11/15 02:04:16;;;;;;;38.80;17.60;;;8.60;99.90;;;;;;5071380;28;20067;-66
2022/11/15 02:06:43;;;;;;;36.35;18.48;;;8.60;99.90;;;;;;5069432;28;20052;-66
2022/11/15 02:09:09;;;;;;;40.92;17.50;;;8.60;99.90;;;;;;5067757;28;20056;-66
2022/11/15 02:11:35;;;;;;;38.85;17.95;;;8.60;99.90;;;;;;5072477;28;20083;-66
2022/11/15 02:14:03;;;;;;;43.22;19.27;;;8.60;99.90;;;;;;5091355;28;20047;-66
2022/11/15 02:16:44;;;;;;;40.28;18.38;;;8.60;99.90;;;;;;5080023;28;20483;-66
2022/11/15 02:19:34;;;;;;;44.47;20.20;;;8.60;99.90;;;;;;5067508;28;20140;-66
2022/11/15 02:22:24;;;;;;;45.78;19.88;;;8.60;99.90;;;;;;5084084;28;20040;-65
2022/11/15 02:25:16;;;;;;;44.65;19.13;;;8.70;99.90;;;;;;5066239;28;20044;-65
2022/11/15 02:27:53;;;;;;;;;;;8.70;99.90;;;;;;5077177;28;20083;-65
2022/11/15 02:30:34;;;;;;;39.95;18.88;;;8.70;99.90;;;;;;5052659;28;19924;-65
2022/11/15 02:33:26;;;;;;;42.72;19.77;;;8.70;99.90;;;;;;5061880;28;20402;-66
2022/11/15 02:36:00;;;;;;;43.28;20.98;;;8.70;99.90;;;;;;5077486;28;20048;-66
2022/11/15 02:38:46;;;;;;;45.40;21.63;;;8.70;99.90;;;;;;5072729;28;20044;-66
2022/11/15 02:41:35;;;;;;;46.40;18.98;;;8.70;99.90;;;;;;5059044;28;20166;-65
2022/11/15 02:44:08;;;;;;;48.35;20.27;;;8.70;99.90;;;;;;5066875;28;20071;-66
2022/11/15 02:49:34;;;;;;;47.03;20.50;;;8.80;99.90;;;;;;5064206;28;20043;-67
2022/11/15 02:52:00;;;;;;;43.70;20.45;;;8.80;99.90;;;;;;5068037;28;20040;-67
2022/11/15 02:54:31;;;;;;;48.63;22.15;;;8.80;99.90;;;;;;5071747;28;20044;-67
2022/11/15 02:57:26;;;;;;;42.88;21.33;;;8.80;99.90;;;;;;5069748;28;20112;-67
2022/11/15 03:00:06;;;;;;;43.92;20.13;;;8.90;99.90;;;;;;5048862;28;20061;-67
2022/11/15 03:03:13;;;;;;;43.03;20.25;;;8.90;99.90;;;;;;5071533;28;20040;-66
2022/11/15 03:05:56;;;;;;;49.10;22.33;;;8.90;99.90;;;;;;5054559;28;20084;-67
2022/11/15 03:08:46;;;;;;;52.05;22.55;;;8.90;99.90;;;;;;5064511;28;20509;-67
2022/11/15 03:11:18;;;;;;;51.63;21.92;;;8.90;99.90;;;;;;5071164;28;20124;-67
2022/11/15 03:13:47;;;;;;;45.63;22.70;;;8.90;99.90;;;;;;5068188;28;20042;-65
2022/11/15 03:16:31;;;;;;;54.72;22.88;;;8.90;99.90;;;;;;5063143;28;20028;-65
2022/11/15 03:19:13;;;;;;;51.33;22.42;;;9.00;99.90;;;;;;5071713;28;20040;-65
2022/11/15 03:21:39;;;;;;;;;;;9.00;99.90;;;;;;5071785;28;20045;-65
2022/11/15 03:24:07;;;;;;;49.15;21.77;;;9.00;99.90;;;;;;5059393;28;20387;-65
2022/11/15 03:26:36;;;;;;;52.13;23.25;;;9.00;99.90;;;;;;5059059;28;20041;-65
2022/11/15 03:29:16;;;;;;;54.63;22.27;;;9.00;99.90;;;;;;5071273;28;20045;-65
2022/11/15 03:31:48;;;;;;;52.75;22.08;;;9.00;99.90;;;;;;5067908;28;20036;-65
2022/11/15 03:34:27;;;;;;;56.30;22.88;;;9.00;99.90;;;;;;5066449;28;20044;-67
2022/11/15 03:36:53;;;;;;;49.90;22.63;;;9.00;99.90;;;;;;5071587;28;20036;-65
2022/11/15 03:39:19;;;;;;;51.17;23.35;;;9.10;99.90;;;;;;5071548;28;20028;-65
2022/11/15 03:42:19;;;;;;;59.42;25.77;;;9.10;99.90;;;;;;5066242;28;20080;-67
2022/11/15 03:45:02;;;;;;;59.80;24.50;;;9.10;99.90;;;;;;5067507;28;20045;-66
2022/11/15 03:47:50;;;;;;;54.55;24.15;;;9.20;99.90;;;;;;5057579;28;20040;-66
2022/11/15 03:50:20;;;;;;;53.53;24.63;;;9.20;99.90;;;;;;5070100;28;20237;-66
2022/11/15 03:52:48;;;;;;;55.40;24.42;;;9.20;99.90;;;;;;5070447;28;20041;-66
2022/11/15 03:55:17;;;;;;;55.97;23.88;;;9.30;99.90;;;;;;5068583;28;20048;-66
2022/11/15 03:57:43;;;;;;;60.08;25.52;;;9.30;99.90;;;;;;5056646;28;20098;-65
2022/11/15 04:00:10;;;;;;;66.80;27.90;;;9.30;99.90;;;;;;5073235;28;20036;-65
2022/11/15 04:02:35;;;;;;;59.50;24.75;;;9.40;99.90;;;;;;5091324;28;20047;-66
2022/11/15 04:05:01;;;;;;;59.95;26.33;;;9.40;99.90;;;;;;5068665;28;20450;-67
2022/11/15 04:07:26;;;;;;;61.63;26.25;;;9.40;99.90;;;;;;5070684;28;20059;-65
2022/11/15 04:10:05;;;;;;;60.13;27.15;;;9.40;99.90;;;;;;5071180;28;20119;-65
2022/11/15 04:12:37;;;;;;;66.43;26.63;;;9.50;99.90;;;;;;5071188;28;20041;-65
2022/11/15 04:15:07;;;;;;;73.00;26.77;;;9.50;99.90;;;;;;5059579;28;20124;-66
2022/11/15 04:17:33;;;;;;;65.95;27.10;;;9.60;99.90;;;;;;5066664;28;20040;-66
2022/11/15 04:25:28;;;;;;;68.07;26.45;;;9.60;99.90;;;;;;5077404;28;20105;-65
2022/11/15 04:27:54;;;;;;;67.65;26.90;;;9.70;99.90;;;;;;5070231;28;20534;-65
2022/11/15 04:30:19;;;;;;;62.70;26.98;;;9.60;99.90;;;;;;5070857;28;20040;-67
2022/11/15 04:32:45;;;;;;;67.88;28.02;;;9.70;99.90;;;;;;5058379;28;20399;-66
2022/11/15 04:35:11;;;;;;;53.50;24.80;;;9.70;99.90;;;;;;5066282;28;20051;-65
2022/11/15 04:37:37;;;;;;;54.55;25.95;;;9.70;99.90;;;;;;5064315;28;20043;-65
2022/11/15 04:40:03;;;;;;;58.13;26.38;;;9.70;99.90;;;;;;5054551;28;20153;-65
2022/11/15 04:42:28;;;;;;;57.80;26.55;;;9.80;99.90;;;;;;5070332;28;20113;-65
2022/11/15 04:44:54;;;;;;;59.22;25.25;;;9.80;99.90;;;;;;5071580;28;20082;-67
2022/11/15 04:47:19;;;;;;;63.13;27.05;;;9.90;99.90;;;;;;5061965;28;20032;-66
2022/11/15 04:49:45;;;;;;;57.17;25.65;;;9.90;99.90;;;;;;5070256;28;20040;-65
2022/11/15 04:52:11;;;;;;;60.22;26.48;;;9.90;99.90;;;;;;5072718;28;20036;-65
2022/11/15 04:54:36;;;;;;;58.60;25.98;;;10.00;99.90;;;;;;5062664;28;20044;-66
2022/11/15 04:57:02;;;;;;;63.65;25.67;;;10.00;99.90;;;;;;5070874;28;20039;-65
2022/11/15 04:59:27;;;;;;;62.65;25.63;;;10.00;99.90;;;;;;5073883;28;20047;-66
2022/11/15 05:01:53;;;;;;;57.63;24.52;;;10.00;99.90;;;;;;5067675;28;20041;-65
2022/11/15 05:04:18;;;;;;;55.50;25.45;;;10.10;99.90;;;;;;5069450;28;20071;-66
2022/11/15 05:06:45;;;;;;;57.85;25.65;;;10.10;99.90;;;;;;5074237;28;20384;-65
2022/11/15 05:09:12;;;;;;;55.35;24.67;;;10.10;99.90;;;;;;5074259;28;20112;-66
2022/11/15 05:11:38;;;;;;;47.92;23.98;;;10.20;99.90;;;;;;5066758;28;20050;-66
2022/11/15 05:14:04;;;;;;;51.65;23.88;;;10.20;99.90;;;;;;5069113;28;20037;-66
2022/11/15 05:16:29;;;;;;;51.78;24.27;;;10.20;99.90;;;;;;5086873;28;20044;-66
2022/11/15 05:18:55;;;;;;;50.17;23.67;;;10.20;99.90;;;;;;5094506;28;20111;-66
2022/11/15 05:21:21;;;;;;;53.92;24.52;;;10.20;99.90;;;;;;5068480;28;20033;-66
2022/11/15 05:23:47;;;;;;;50.83;23.67;;;10.30;99.90;;;;;;5070898;28;20040;-67
2022/11/15 05:26:13;;;;;;;53.22;24.45;;;10.30;99.90;;;;;;5073399;28;20028;-66
2022/11/15 05:28:39;;;;;;;53.88;24.38;;;10.40;99.90;;;;;;5056755;28;20106;-67
2022/11/15 05:31:07;;;;;;;49.78;23.20;;;10.40;99.90;;;;;;5065007;28;20483;-67
2022/11/15 05:33:35;;;;;;;49.47;23.85;;;10.40;99.90;;;;;;5063943;28;20040;-66
2022/11/15 05:36:11;;;;;;;47.58;22.85;;;10.50;99.90;;;;;;5073088;28;20440;-66
2022/11/15 05:38:37;;;;;;;48.13;23.48;;;10.50;99.90;;;;;;5073687;28;20037;-65
2022/11/15 05:41:04;;;;;;;49.83;22.75;;;10.50;99.90;;;;;;5071760;28;20040;-67
2022/11/15 05:43:33;;;;;;;48.58;23.90;;;10.60;99.90;;;;;;5065232;28;20045;-66
2022/11/15 05:46:00;;;;;;;46.22;22.90;;;10.60;99.90;;;;;;5061305;28;20044;-66
2022/11/15 05:48:26;;;;;;;46.70;23.15;;;10.60;99.90;;;;;;5073197;28;20410;-66
2022/11/15 05:50:52;;;;;;;51.92;23.20;;;10.70;99.90;;;;;;5076319;22;20674;-66
2022/11/15 05:53:20;;;;;;;46.35;21.85;;;10.70;99.90;;;;;;5066384;28;20028;-66
2022/11/15 05:55:46;;;;;;;45.35;23.23;;;10.70;99.90;;;;;;5045581;28;20386;-66
2022/11/15 05:58:12;;;;;;;44.33;22.30;;;10.80;99.90;;;;;;5072474;28;20040;-65
2022/11/15 06:00:38;;;;;;;41.53;21.70;;;10.80;99.90;;;;;;5064151;28;20040;-66
2022/11/15 06:03:04;;;;;;;48.13;21.42;;;10.80;99.90;;;;;;5072419;28;20075;-67
2022/11/15 06:05:29;;;;;;;42.38;20.55;;;10.80;99.90;;;;;;5072975;28;20062;-67
2022/11/15 06:07:58;;;;;;;43.40;21.55;;;10.90;99.90;;;;;;5073305;28;20032;-67
2022/11/15 06:10:24;;;;;;;40.17;21.30;;;10.90;99.90;;;;;;5070635;28;20695;-66
2022/11/15 06:13:01;;;;;;;44.58;21.40;;;10.90;99.90;;;;;;5078612;28;20126;-67
2022/11/15 06:15:26;;;;;;;42.35;20.45;;;11.00;99.90;;;;;;5072655;28;20047;-67
2022/11/15 06:17:52;;;;;;;40.65;20.80;;;10.90;99.90;;;;;;5070436;28;20033;-67
2022/11/15 06:20:18;;;;;;;45.78;20.80;;;11.00;99.90;;;;;;5079984;28;20056;-67
2022/11/15 06:22:43;;;;;;;39.80;20.20;;;11.00;99.90;;;;;;5071534;28;20036;-67
2022/11/15 06:25:09;;;;;;;44.70;20.33;;;11.00;99.90;;;;;;5077570;28;20044;-66
2022/11/15 06:27:35;;;;;;;36.35;19.33;;;11.10;99.90;;;;;;5072193;28;20041;-66
2022/11/15 06:30:00;;;;;;;43.88;21.85;;;11.10;99.90;;;;;;5070967;28;20043;-66
2022/11/15 06:32:26;;;;;;;36.72;20.38;;;11.10;99.90;;;;;;5074247;28;20060;-66
2022/11/15 06:34:51;;;;;;;41.67;21.05;;;11.10;99.90;;;;;;5072686;28;20129;-66
2022/11/15 06:37:17;;;;;;;39.65;20.25;;;11.10;99.90;;;;;;5073434;28;20064;-66
2022/11/15 06:39:43;;;;;;;40.47;20.65;;;11.10;99.90;;;;;;5072356;28;20043;-66
2022/11/15 06:42:09;;;;;;;42.13;21.00;;;11.10;99.90;;;;;;5053314;28;20512;-66
2022/11/15 06:44:34;;;;;;;38.10;20.13;;;11.10;99.90;;;;;;5081108;28;20052;-66
2022/11/15 06:47:00;;;;;;;35.85;19.80;;;11.10;99.90;;;;;;5089399;28;20134;-66
2022/11/15 06:49:25;;;;;;;44.58;20.73;;;11.10;99.90;;;;;;5090095;28;20489;-66
2022/11/15 06:51:51;;;;;;;38.85;20.80;;;11.10;99.90;;;;;;5073798;28;20091;-66
2022/11/15 06:54:16;;;;;;;34.50;19.70;;;11.20;99.90;;;;;;5068982;28;20406;-66
2022/11/15 06:56:42;;;;;;;41.13;19.90;;;11.20;99.90;;;;;;5069111;28;20072;-66
2022/11/15 06:59:08;;;;;;;36.05;19.73;;;11.20;99.90;;;;;;5069482;28;20402;-66
2022/11/15 07:01:33;;;;;;;37.65;19.60;;;11.20;99.90;;;;;;5070839;28;20067;-66
2022/11/15 07:03:59;;;;;;;38.70;20.50;;;11.20;99.90;;;;;;5070214;28;20044;-65
2022/11/15 07:06:24;;;;;;;38.80;20.73;;;11.30;99.90;;;;;;5071821;28;20048;-66
2022/11/15 07:08:50;;;;;;;37.42;19.60;;;11.30;99.90;;;;;;5064734;28;20144;-65
2022/11/15 07:11:15;;;;;;;36.60;20.35;;;11.30;99.90;;;;;;5076194;28;20035;-65
2022/11/15 07:13:41;;;;;;;37.65;19.38;;;11.30;99.90;;;;;;5080608;28;20040;-65
2022/11/15 07:16:09;;;;;;;39.08;20.02;;;11.30;99.90;;;;;;5074748;28;20045;-65
2022/11/15 07:18:36;;;;;;;36.90;19.33;;;11.30;99.90;;;;;;5091534;28;20088;-65
2022/11/15 07:21:10;;;;;;;34.67;19.25;;;11.40;99.90;;;;;;5079532;28;20046;-65
2022/11/15 07:23:37;;;;;;;38.55;19.65;;;11.40;99.90;;;;;;5075197;28;20560;-65
2022/11/15 07:26:03;;;;;;;34.65;19.42;;;11.30;99.90;;;;;;5077614;28;20405;-65
2022/11/15 07:28:29;;;;;;;38.22;19.55;;;11.40;99.90;;;;;;5085519;28;20032;-65
2022/11/15 07:30:54;;;;;;;37.63;19.45;;;11.40;99.90;;;;;;5091520;28;20504;-65
2022/11/15 07:33:20;;;;;;;38.80;19.70;;;11.40;99.90;;;;;;5074260;28;20526;-65
2022/11/15 07:35:49;;;;;;;34.67;18.63;;;11.50;99.90;;;;;;5070632;28;20028;-65
2022/11/15 07:38:15;;;;;;;38.90;19.90;;;11.50;99.90;;;;;;5071356;28;20498;-65
2022/11/15 07:40:41;;;;;;;32.92;19.10;;;11.50;99.90;;;;;;5070093;28;20059;-65
2022/11/15 07:43:08;;;;;;;33.15;18.85;;;11.50;99.90;;;;;;5070482;28;20432;-65
2022/11/15 07:45:34;;;;;;;36.35;20.38;;;11.60;99.90;;;;;;5073938;28;20037;-65
2022/11/15 07:48:00;;;;;;;39.28;20.60;;;11.60;99.90;;;;;;5079868;28;20041;-65
2022/11/15 07:50:27;;;;;;;37.60;19.83;;;11.60;99.90;;;;;;5084307;28;20036;-65
2022/11/15 07:52:57;;;;;;;35.65;20.02;;;11.70;99.90;;;;;;5088998;28;20044;-65
2022/11/15 07:55:29;;;;;;;38.08;20.65;;;11.70;99.90;;;;;;5076825;28;20397;-65
2022/11/15 07:58:04;;;;;;;39.05;20.65;;;11.70;99.90;;;;;;5073994;28;20044;-65
2022/11/15 08:00:30;;;;;;;35.85;20.45;;;11.70;99.90;;;;;;5070540;28;20124;-65
2022/11/15 08:03:16;;;;;;;35.85;21.35;;;11.80;99.90;;;;;;5070498;28;20040;-65
2022/11/15 08:05:43;;;;;;;36.53;20.08;;;11.80;99.90;;;;;;5071433;28;20047;-65
2022/11/15 08:08:10;;;;;;;36.65;19.92;;;11.80;99.90;;;;;;5076305;28;20562;-65
2022/11/15 08:10:36;;;;;;;42.50;21.10;;;11.90;99.90;;;;;;5070974;28;20124;-65
2022/11/15 08:13:04;;;;;;;38.20;22.15;;;11.90;99.90;;;;;;5088883;28;20032;-65
2022/11/15 08:15:31;;;;;;;41.42;21.30;;;11.90;99.90;;;;;;5069589;28;20426;-65
2022/11/15 08:17:58;;;;;;;40.72;20.92;;;11.90;99.90;;;;;;5072415;28;20479;-65
2022/11/15 08:20:25;;;;;;;37.33;20.90;;;11.90;99.90;;;;;;5093532;28;20038;-65
2022/11/15 08:22:51;;;;;;;41.17;21.70;;;11.90;99.90;;;;;;5095573;28;20040;-65
2022/11/15 08:25:17;;;;;;;36.00;20.77;;;11.90;99.90;;;;;;5081882;28;20077;-65
2022/11/15 08:27:42;;;;;;;34.17;19.73;;;11.90;99.90;;;;;;5081966;28;20101;-65
2022/11/15 08:30:08;;;;;;;37.55;20.15;;;11.90;99.90;;;;;;5075637;28;20572;-65
2022/11/15 08:32:34;;;;;;;38.03;21.13;;;12.00;99.90;;;;;;5080185;28;20076;-65
2022/11/15 08:35:00;;;;;;;38.58;20.40;;;12.00;99.90;;;;;;5084654;28;20087;-65
2022/11/15 08:37:25;;;;;;;35.60;19.88;;;12.00;99.90;;;;;;5074932;28;20036;-65
2022/11/15 08:39:51;;;;;;;37.00;20.60;;;12.10;99.90;;;;;;5076236;28;20041;-65
2022/11/15 08:42:16;;;;;;;34.30;19.60;;;12.00;99.90;;;;;;5076910;28;20059;-66
2022/11/15 08:44:42;;;;;;;31.73;19.23;;;12.10;99.90;;;;;;5071662;28;20604;-65
2022/11/15 08:47:10;;;;;;;30.50;18.65;;;12.10;99.90;;;;;;5073762;28;20123;-66
2022/11/15 08:49:36;;;;;;;33.30;19.25;;;12.10;99.90;;;;;;5081891;28;20036;-65
2022/11/15 08:52:02;;;;;;;29.45;18.05;;;12.10;99.90;;;;;;5091991;28;20092;-65
2022/11/15 08:54:27;;;;;;;30.17;18.38;;;12.10;99.90;;;;;;5072752;28;20068;-65
2022/11/15 08:56:53;;;;;;;29.60;18.35;;;12.20;99.90;;;;;;5073614;28;20082;-65
2022/11/15 08:59:18;;;;;;;28.40;17.55;;;12.20;99.90;;;;;;5074104;28;20048;-65
2022/11/15 09:01:44;;;;;;;31.25;17.17;;;12.20;99.90;;;;;;5072372;28;20059;-66
2022/11/15 09:04:10;;;;;;;26.23;16.92;;;12.30;99.90;;;;;;5080083;28;20071;-65
2022/11/15 09:06:35;;;;;;;28.30;17.35;;;12.30;99.90;;;;;;5075552;28;20037;-65
2022/11/15 09:09:01;;;;;;;26.60;16.08;;;12.30;99.90;;;;;;5081719;28;20044;-65
2022/11/15 09:11:27;;;;;;;26.70;16.40;;;12.30;99.90;;;;;;5078657;28;20038;-65
2022/11/15 09:13:52;;;;;;;24.65;15.77;;;12.30;99.90;;;;;;5094598;28;20040;-65
2022/11/15 09:16:18;;;;;;;25.35;15.48;;;12.30;99.90;;;;;;5087139;28;20032;-65
2022/11/15 09:18:44;;;;;;;23.80;15.88;;;12.40;99.90;;;;;;5085171;28;20052;-65
2022/11/15 09:21:10;;;;;;;25.23;16.38;;;12.40;99.90;;;;;;5084203;28;20044;-65
2022/11/15 09:23:35;;;;;;;24.27;15.63;;;12.40;99.90;;;;;;5078180;28;20102;-65
2022/11/15 09:26:03;;;;;;;25.98;16.52;;;12.40;99.90;;;;;;5073147;28;20040;-65
2022/11/15 09:28:30;;;;;;;24.98;16.02;;;12.40;99.90;;;;;;5074095;28;20075;-65
2022/11/15 09:30:58;;;;;;;26.35;17.25;;;12.40;99.90;;;;;;5075365;28;20483;-65
2022/11/15 09:33:24;;;;;;;26.65;16.45;;;12.40;99.90;;;;;;5077751;28;20058;-65
2022/11/15 09:35:49;;;;;;;25.75;16.88;;;12.40;99.90;;;;;;5094016;28;20032;-65
2022/11/15 09:38:15;;;;;;;27.08;17.55;;;12.40;99.90;;;;;;5081244;28;20036;-65
2022/11/15 09:40:40;;;;;;;30.50;18.00;;;12.30;99.90;;;;;;5080201;28;20404;-65
2022/11/15 09:43:42;;;;;;;30.08;18.80;;;12.30;99.90;;;;;;5093563;28;20393;-65
2022/11/15 09:46:31;;;;;;;31.77;19.48;;;12.30;99.90;;;;;;5091848;28;20043;-65
2022/11/15 09:49:01;;;;;;;31.85;19.23;;;12.30;99.90;;;;;;5072042;28;20048;-65
2022/11/15 09:51:56;;;;;;;34.77;20.73;;;12.30;99.90;;;;;;5093233;28;20044;-65
2022/11/15 09:54:37;;;;;;;33.58;19.27;;;12.30;99.90;;;;;;5077991;28;20114;-65
2022/11/15 09:57:39;;;;;;;33.95;19.83;;;12.20;99.90;;;;;;5071926;28;20115;-66
2022/11/15 10:00:25;;;;;;;27.70;17.10;;;12.20;99.90;;;;;;5060852;28;20118;-66
2022/11/15 10:03:28;;;;;;;28.48;16.52;;;12.20;99.90;;;;;;5083296;28;20104;-66
2022/11/15 10:05:57;;;;;;;30.48;17.95;;;12.10;99.90;;;;;;5091450;28;20044;-65
2022/11/15 10:09:00;;;;;;;32.13;18.55;;;12.10;99.90;;;;;;5082659;28;20044;-65
2022/11/15 10:11:28;;;;;;;33.28;20.20;;;12.20;99.90;;;;;;5056913;28;20037;-65
2022/11/15 10:13:59;;;;;;;33.13;19.63;;;12.20;99.90;;;;;;5083181;28;20075;-66
2022/11/15 10:16:46;;;;;;;37.03;21.30;;;12.30;99.90;;;;;;5074633;28;20048;-65
2022/11/15 10:19:29;;;;;;;40.47;21.58;;;12.50;99.90;;;;;;5089414;28;20112;-65
2022/11/15 10:22:08;;;;;;;33.78;19.20;;;12.60;99.90;;;;;;5069802;28;20064;-65
2022/11/15 10:24:39;;;;;;;40.58;19.98;;;12.70;99.90;;;;;;5086488;28;20101;-65
2022/11/15 10:27:13;;;;;;;31.92;18.48;;;12.70;99.90;;;;;;5072818;28;20048;-65
2022/11/15 10:29:50;;;;;;;30.45;18.48;;;12.80;99.90;;;;;;5071786;28;20075;-65
2022/11/15 10:32:18;;;;;;;29.23;16.60;;;12.90;99.90;;;;;;5092247;28;20047;-65
2022/11/15 10:34:45;;;;;;;32.15;17.48;;;12.90;99.90;;;;;;5092409;28;20116;-65
2022/11/15 10:37:10;;;;;;;26.42;15.65;;;12.80;99.90;;;;;;5081809;28;20055;-65
2022/11/15 10:39:36;;;;;;;28.95;16.23;;;12.80;99.90;;;;;;5089229;28;20039;-66
2022/11/15 10:42:26;;;;;;;22.80;14.50;;;12.80;99.90;;;;;;5092215;28;20044;-65
2022/11/15 10:44:52;;;;;;;23.30;13.90;;;12.80;99.90;;;;;;5085149;28;20043;-65
2022/11/15 10:47:32;;;;;;;22.05;12.73;;;12.80;99.90;;;;;;5083840;28;20390;-65
2022/11/15 10:50:05;;;;;;;21.90;13.52;;;12.80;99.90;;;;;;5074658;28;20414;-65
2022/11/15 10:52:34;;;;;;;18.85;12.00;;;12.90;99.90;;;;;;5076320;28;20288;-65
2022/11/15 10:55:19;;;;;;;19.17;12.75;;;12.90;99.90;;;;;;5083610;28;20040;-65
2022/11/15 10:57:52;;;;;;;20.08;11.63;;;13.00;99.90;;;;;;5092366;28;20047;-65
2022/11/15 11:00:21;;;;;;;18.13;11.43;;;13.00;99.90;;;;;;5084779;28;20040;-66
2022/11/15 11:02:55;;;;;;;18.77;11.50;;;13.00;99.90;;;;;;5072930;28;20139;-65
2022/11/15 11:05:29;;;;;;;16.50;10.80;;;13.10;99.90;;;;;;5072861;28;20085;-65
2022/11/15 11:08:01;;;;;;;14.90;9.68;;;13.10;99.90;;;;;;5077845;28;20406;-65
2022/11/15 11:10:27;;;;;;;13.85;9.48;;;12.90;99.90;;;;;;5075963;28;20039;-65
2022/11/15 11:12:53;;;;;;;14.82;8.93;;;12.90;99.90;;;;;;5071564;28;20120;-65
2022/11/15 11:15:19;;;;;;;13.50;8.63;;;12.80;99.90;;;;;;5092017;28;20119;-65
2022/11/15 11:17:57;;;;;;;14.40;8.43;;;12.80;99.90;;;;;;5079494;28;20104;-65
2022/11/15 11:20:50;;;;;;;15.25;8.13;;;12.80;99.90;;;;;;5091161;28;20513;-65
2022/11/15 11:23:34;;;;;;;12.60;8.07;;;12.80;99.90;;;;;;5071314;28;20486;-65
2022/11/15 11:26:35;;;;;;;11.15;7.75;;;12.80;99.90;;;;;;5070797;28;20483;-65
2022/11/15 11:29:31;;;;;;;12.55;7.30;;;12.70;99.90;;;;;;5078032;28;20114;-65
2022/11/15 11:32:34;;;;;;;13.32;8.10;;;12.60;99.90;;;;;;5071270;28;20078;-65
2022/11/15 11:35:14;;;;;;;11.77;7.32;;;12.70;99.90;;;;;;5070454;28;20514;-65
2022/11/15 11:37:57;;;;;;;14.25;7.63;;;12.80;99.90;;;;;;5087831;28;20044;-65
2022/11/15 11:40:32;;;;;;;11.63;7.55;;;12.90;99.90;;;;;;5071667;28;20074;-65
2022/11/15 11:43:31;;;;;;;15.13;7.30;;;12.80;99.90;;;;;;5076382;28;20032;-65
2022/11/15 11:46:27;;;;;;;9.95;6.03;;;12.90;99.90;;;;;;5071193;28;20070;-65
2022/11/15 11:49:02;;;;;;;11.50;6.82;;;12.70;99.90;;;;;;5071449;28;20037;-65
2022/11/15 11:51:38;;;;;;;10.75;6.20;;;12.80;99.90;;;;;;5113661;22;20087;-65
2022/11/15 11:54:20;;;;;;;9.90;6.45;;;12.70;99.90;;;;;;5077189;28;20040;-67
2022/11/15 11:56:45;;;;;;;11.43;6.10;;;12.80;99.90;;;;;;5091534;28;20036;-67
2022/11/15 11:59:28;;;;;;;9.77;5.80;;;12.90;99.90;;;;;;5084786;28;20040;-67
2022/11/15 12:01:54;;;;;;;11.80;5.78;;;13.00;99.90;;;;;;5084316;28;20048;-67
2022/11/15 12:04:35;;;;;;;7.75;5.13;;;13.10;99.90;;;;;;5091087;28;20115;-66
2022/11/15 12:07:03;;;;;;;10.18;5.47;;;13.10;99.90;;;;;;5089142;28;20177;-67
2022/11/15 12:09:44;;;;;;;9.02;5.35;;;13.20;99.90;;;;;;5079094;28;20406;-66
2022/11/15 12:12:24;;;;;;;9.90;6.00;;;13.30;99.90;;;;;;5089998;28;20032;-67
2022/11/15 12:15:04;;;;;;;8.35;5.47;;;13.40;99.90;;;;;;5087459;28;20155;-67
2022/11/15 12:17:31;;;;;;;10.18;5.15;;;13.50;99.90;;;;;;5082879;28;20156;-67
2022/11/15 12:20:06;;;;;;;10.27;5.57;;;13.50;99.90;;;;;;5091162;28;20119;-67
2022/11/15 12:22:31;;;;;;;8.88;5.70;;;13.60;99.90;;;;;;5090954;28;20124;-66
2022/11/15 12:25:19;;;;;;;9.82;4.97;;;13.70;99.90;;;;;;5075239;28;20171;-66
2022/11/15 12:28:13;;;;;;;10.20;5.28;;;13.70;99.90;;;;;;5089447;28;20370;-67
2022/11/15 12:30:54;;;;;;;8.88;5.32;;;13.90;99.90;;;;;;5071435;28;20040;-66
2022/11/15 12:33:46;;;;;;;7.27;5.00;;;14.00;99.90;;;;;;5068430;28;22588;-66
2022/11/15 12:36:29;;;;;;;10.20;5.28;;;14.10;99.90;;;;;;5077517;28;20474;-66
2022/11/15 12:38:56;;;;;;;8.05;5.30;;;14.20;99.90;;;;;;5067445;28;20043;-66
2022/11/15 12:41:33;;;;;;;7.40;3.67;;;14.20;99.90;;;;;;5082870;28;20043;-66
2022/11/15 12:43:59;;;;;;;6.55;3.42;;;14.00;99.90;;;;;;5087912;28;20047;-66
2022/11/15 12:46:45;;;;;;;6.35;3.65;;;14.00;99.90;;;;;;5091359;28;20075;-67
2022/11/15 12:49:36;;;;;;;6.50;3.90;;;14.00;99.90;;;;;;5056006;28;20055;-67
2022/11/15 12:52:02;;;;;;;7.10;4.00;;;13.90;99.90;;;;;;5066712;28;20052;-66
2022/11/15 12:54:40;;;;;;;5.70;3.50;;;14.00;99.90;;;;;;5090168;28;20070;-66
2022/11/15 12:57:06;;;;;;;5.43;3.50;;;13.90;99.90;;;;;;5069345;28;20047;-67
2022/11/15 12:59:58;;;;;;;5.47;4.03;;;13.90;99.90;;;;;;5086974;28;20036;-67
2022/11/15 13:02:29;;;;;;;5.00;3.08;;;13.90;99.90;;;;;;5083144;28;20393;-66